Time;durP1;ratioP1;P1;durP2;ratioP2;P2;SDS_P1;SDS_P2;PMS_P1;PMS_P2;Temp;Humidity;BMP_temperature;BMP_pressure;BME280_temperature;BME280_humidity;BME280_pressure;Samples;Min_cycle;Max_cycle;Signal;HPM_P1;HPM_P2
2023/04/19 00:00:37;;;;;;;;;;;;;;;11.54;84.52;102157.28;7349005;19;19930;-64
2023/04/19 00:03:05;;;;;;;;;;;;;;;11.54;84.96;102152.84;7357292;19;19922;-63
2023/04/19 00:05:33;;;;;;;;;;;;;;;11.40;85.00;102158.44;7348268;19;19915;-66
2023/04/19 00:08:00;;;;;;;;;;;;;;;11.38;85.41;102151.59;7352449;19;20495;-61
2023/04/19 00:10:27;;;;;;;;;;;;;;;11.42;85.71;102147.78;7355617;19;19915;-62
2023/04/19 00:12:54;;;;;;;;;;;;;;;11.40;85.41;102149.69;7352227;19;20003;-61
2023/04/19 00:15:21;;;;;;;;;;;;;;;11.35;85.57;102152.69;7348583;19;19922;-62
2023/04/19 00:17:48;;;;;;;;;;;;;;;11.31;86.03;102151.28;7349834;19;19933;-61
2023/04/19 00:20:16;;;;;;;;;;;;;;;11.36;86.58;102146.47;7354757;19;19947;-61
2023/04/19 00:22:43;;;;;;;;;;;;;;;11.37;85.91;102142.88;7345077;19;19923;-59
2023/04/19 00:25:10;;;;;;;;;;;;;;;11.40;85.31;102134.72;7336469;19;19919;-60
2023/04/19 00:27:37;;;;;;;;;;;;;;;11.42;85.58;102134.59;7348436;19;19914;-61
2023/04/19 00:30:05;;;;;;;;;;;;;;;11.37;85.47;102134.97;7353252;19;19923;-62
2023/04/19 00:32:34;;;;;;;;;;;;;;;11.38;85.63;102128.72;7353296;19;21022;-61
2023/04/19 00:35:02;;;;;;;;;;;;;;;11.36;85.75;102122.75;7350309;19;19955;-59
2023/04/19 00:37:30;;;;;;;;;;;;;;;11.32;85.69;102123.13;7349859;19;19925;-63
2023/04/19 00:39:59;;;;;;;;;;;;;;;11.34;86.07;102122.03;7354796;19;20348;-59
2023/04/19 00:42:26;;;;;;;;;;;;;;;11.37;85.97;102124.44;7351534;19;19922;-60
2023/04/19 00:44:53;;;;;;;;;;;;;;;11.37;85.61;102121.81;7350836;19;19954;-59
2023/04/19 00:47:20;;;;;;;;;;;;;;;11.33;85.54;102127.41;7347563;19;19949;-61
2023/04/19 00:49:47;;;;;;;;;;;;;;;11.30;85.52;102123.25;7349080;19;19930;-62
2023/04/19 00:52:14;;;;;;;;;;;;;;;11.30;85.87;102117.97;7357060;19;19968;-59
2023/04/19 00:54:42;;;;;;;;;;;;;;;11.35;85.85;102112.34;7356116;19;19923;-61
2023/04/19 00:57:09;;;;;;;;;;;;;;;11.35;85.79;102109.69;7354946;19;20470;-61
2023/04/19 00:59:36;;;;;;;;;;;;;;;11.36;85.37;102117.50;7356311;19;19951;-60
2023/04/19 01:02:03;;;;;;;;;;;;;;;11.38;85.53;102104.16;7354599;19;19915;-62
2023/04/19 01:04:30;;;;;;;;;;;;;;;11.40;85.41;102113.63;7356156;19;20245;-61
2023/04/19 01:06:57;;;;;;;;;;;;;;;11.42;85.79;102103.81;7357271;19;19923;-61
2023/04/19 01:09:24;;;;;;;;;;;;;;;11.33;85.85;102103.69;7356146;19;19914;-61
2023/04/19 01:11:52;;;;;;;;;;;;;;;11.35;85.76;102110.53;7353850;19;19923;-62
2023/04/19 01:14:18;;;;;;;;;;;;;;;11.30;86.04;102109.25;7357834;19;20477;-62
2023/04/19 01:16:46;;;;;;;;;;;;;;;11.34;86.00;102092.22;7356222;19;19919;-61
2023/04/19 01:19:13;;;;;;;;;;;;;;;11.28;85.86;102093.53;7357186;19;19979;-60
2023/04/19 01:21:41;;;;;;;;;;;;;;;11.33;86.05;102093.16;7356706;19;19923;-59
2023/04/19 01:24:08;;;;;;;;;;;;;;;11.32;86.37;102088.88;7363951;19;19923;-59
2023/04/19 01:26:35;;;;;;;;;;;;;;;11.34;85.71;102086.94;7361718;19;19915;-61
2023/04/19 01:29:02;;;;;;;;;;;;;;;11.36;85.92;102083.22;7361535;19;19922;-61
2023/04/19 01:31:29;;;;;;;;;;;;;;;11.30;85.64;102080.25;7363775;19;20010;-60
2023/04/19 01:33:57;;;;;;;;;;;;;;;11.34;85.56;102085.13;7363423;19;21061;-64
2023/04/19 01:36:23;;;;;;;;;;;;;;;11.32;86.24;102084.44;7362618;19;19923;-64
2023/04/19 01:38:50;;;;;;;;;;;;;;;11.29;86.12;102078.56;7365975;19;19919;-64
2023/04/19 01:41:19;;;;;;;;;;;;;;;11.31;86.10;102080.13;7363295;19;19947;-58
2023/04/19 01:43:46;;;;;;;;;;;;;;;11.31;86.12;102080.13;7363021;19;20490;-62
2023/04/19 01:46:13;;;;;;;;;;;;;;;11.34;85.99;102081.66;7365721;19;20253;-62
2023/04/19 01:48:40;;;;;;;;;;;;;;;11.36;85.69;102085.03;7359267;19;19958;-60
2023/04/19 01:51:07;;;;;;;;;;;;;;;11.38;85.50;102085.72;7361957;19;20562;-63
2023/04/19 01:53:34;;;;;;;;;;;;;;;11.40;85.19;102081.16;7362263;19;20351;-60
2023/04/19 01:56:00;;;;;;;;;;;;;;;11.38;85.42;102083.06;7358669;19;20429;-58
2023/04/19 01:58:27;;;;;;;;;;;;;;;11.33;85.89;102085.25;7365786;19;19962;-61
2023/04/19 02:00:54;;;;;;;;;;;;;;;11.32;86.02;102078.34;7362272;19;21244;-62
2023/04/19 02:03:21;;;;;;;;;;;;;;;11.31;85.85;102076.66;7357911;19;19919;-60
2023/04/19 02:05:49;;;;;;;;;;;;;;;11.36;85.87;102083.22;7363487;19;19918;-61
2023/04/19 02:08:16;;;;;;;;;;;;;;;11.34;86.09;102077.22;7362652;19;19918;-61
2023/04/19 02:10:43;;;;;;;;;;;;;;;11.37;85.92;102070.88;7362036;19;19937;-63
2023/04/19 02:13:10;;;;;;;;;;;;;;;11.32;85.92;102071.28;7355120;19;20079;-59
2023/04/19 02:15:37;;;;;;;;;;;;;;;11.34;86.04;102074.59;7331495;19;19919;-62
2023/04/19 02:18:05;;;;;;;;;;;;;;;11.32;86.29;102066.00;7368003;19;21229;-62
2023/04/19 02:20:32;;;;;;;;;;;;;;;11.33;86.49;102065.00;7364699;19;20357;-60
2023/04/19 02:22:59;;;;;;;;;;;;;;;11.36;86.77;102066.56;7359811;19;19923;-61
2023/04/19 02:25:26;;;;;;;;;;;;;;;11.34;86.46;102064.06;7362726;19;19926;-61
2023/04/19 02:27:53;;;;;;;;;;;;;;;11.34;86.53;102064.06;7363976;19;19915;-62
2023/04/19 02:30:20;;;;;;;;;;;;;;;11.31;86.98;102061.69;7356346;19;19923;-65
2023/04/19 02:32:48;;;;;;;;;;;;;;;11.30;87.16;102057.38;7364330;19;19923;-62
2023/04/19 02:35:15;;;;;;;;;;;;;;;11.27;86.79;102060.28;7361613;19;19914;-62
2023/04/19 02:37:43;;;;;;;;;;;;;;;11.24;87.52;102057.88;7358891;19;20426;-62
2023/04/19 02:40:10;;;;;;;;;;;;;;;11.22;87.77;102062.47;7362757;19;19923;-61
2023/04/19 02:42:37;;;;;;;;;;;;;;;11.18;87.45;102050.47;7359389;19;19927;-63
2023/04/19 02:45:05;;;;;;;;;;;;;;;11.20;87.86;102055.63;7358469;19;19926;-61
2023/04/19 02:47:31;;;;;;;;;;;;;;;11.22;87.52;102046.66;7362961;19;19922;-62
2023/04/19 02:49:59;;;;;;;;;;;;;;;11.15;87.56;102056.00;7362139;19;20273;-61
2023/04/19 02:52:26;;;;;;;;;;;;;;;11.20;87.63;102055.63;7361948;19;20518;-61
2023/04/19 02:54:53;;;;;;;;;;;;;;;11.22;87.76;102051.91;7360857;19;19918;-63
2023/04/19 02:57:20;;;;;;;;;;;;;;;11.22;87.55;102051.09;7360021;19;19919;-62
2023/04/19 02:59:47;;;;;;;;;;;;;;;11.23;87.76;102052.72;7359003;19;21548;-63
2023/04/19 03:02:14;;;;;;;;;;;;;;;11.19;87.69;102057.41;7357640;19;19915;-63
2023/04/19 03:04:42;;;;;;;;;;;;;;;11.20;87.44;102045.94;7361034;19;19956;-63
2023/04/19 03:07:09;;;;;;;;;;;;;;;11.22;87.46;102057.19;7364023;19;20385;-63
2023/04/19 03:09:36;;;;;;;;;;;;;;;11.15;87.44;102056.84;7359576;19;19937;-63
2023/04/19 03:12:03;;;;;;;;;;;;;;;11.17;87.53;102061.16;7361166;19;19918;-63
2023/04/19 03:14:32;;;;;;;;;;;;;;;11.15;87.47;102051.56;7358674;19;19934;-64
2023/04/19 03:16:59;;;;;;;;;;;;;;;11.15;87.97;102045.47;7364282;19;19926;-62
2023/04/19 03:19:26;;;;;;;;;;;;;;;11.13;87.79;102048.22;7359567;19;19958;-63
2023/04/19 03:21:53;;;;;;;;;;;;;;;11.09;87.70;102043.34;7363782;19;19919;-62
2023/04/19 03:24:23;;;;;;;;;;;;;;;11.11;87.67;102038.78;7360540;19;19926;-64
2023/04/19 03:26:50;;;;;;;;;;;;;;;11.11;87.72;102038.78;7364253;19;19943;-63
2023/04/19 03:29:17;;;;;;;;;;;;;;;11.05;87.88;102041.94;7356472;19;19955;-62
2023/04/19 03:31:44;;;;;;;;;;;;;;;11.04;87.77;102037.59;7361746;19;20560;-63
2023/04/19 03:34:11;;;;;;;;;;;;;;;11.06;87.84;102043.59;7358654;19;20382;-63
2023/04/19 03:36:38;;;;;;;;;;;;;;;11.07;88.69;102037.38;7359762;19;20357;-62
2023/04/19 03:39:05;;;;;;;;;;;;;;;11.03;87.76;102035.94;7360361;19;19925;-63
2023/04/19 03:41:33;;;;;;;;;;;;;;;10.90;87.93;102043.19;7360962;19;19911;-63
2023/04/19 03:44:00;;;;;;;;;;;;;;;10.87;88.47;102049.50;7360700;19;19915;-62
2023/04/19 03:46:30;;;;;;;;;;;;;;;10.81;88.73;102041.28;7357509;19;20356;-63
2023/04/19 03:48:57;;;;;;;;;;;;;;;10.83;88.94;102039.34;7360710;19;20343;-63
2023/04/19 03:51:26;;;;;;;;;;;;;;;10.79;89.20;102036.16;7363431;19;19934;-62
2023/04/19 03:53:53;;;;;;;;;;;;;;;10.80;89.15;102036.97;7362031;19;20612;-63
2023/04/19 03:56:20;;;;;;;;;;;;;;;10.80;89.30;102037.81;7360175;19;19927;-64
2023/04/19 03:58:50;;;;;;;;;;;;;;;10.74;89.03;102038.31;7357491;19;20548;-63
2023/04/19 04:01:18;;;;;;;;;;;;;;;10.75;88.90;102039.16;7357702;19;19942;-63
2023/04/19 04:03:45;;;;;;;;;;;;;;;10.72;89.05;102030.53;7362556;19;19919;-62
2023/04/19 04:06:12;;;;;;;;;;;;;;;10.71;89.19;102031.50;7361810;19;21228;-63
2023/04/19 04:08:39;;;;;;;;;;;;;;;10.71;89.41;102028.88;7360198;19;19911;-67
2023/04/19 04:11:06;;;;;;;;;;;;;;;10.70;89.82;102032.47;7359377;19;19922;-63
2023/04/19 04:13:33;;;;;;;;;;;;;;;10.68;89.88;102026.47;7360855;19;19915;-62
2023/04/19 04:16:00;;;;;;;;;;;;;;;10.68;89.86;102025.63;7354605;19;19918;-62
2023/04/19 04:18:27;;;;;;;;;;;;;;;10.68;89.33;102033.53;7362325;19;19919;-63
2023/04/19 04:20:54;;;;;;;;;;;;;;;10.68;89.05;102031.75;7357103;19;19922;-64
2023/04/19 04:23:22;;;;;;;;;;;;;;;10.69;89.22;102033.41;7359974;19;19919;-62
2023/04/19 04:25:52;;;;;;;;;;;;;;;10.66;89.29;102036.31;7359969;19;20178;-63
2023/04/19 04:28:20;;;;;;;;;;;;;;;10.67;89.24;102032.69;7361329;19;20506;-62
2023/04/19 04:30:47;;;;;;;;;;;;;;;10.63;89.15;102027.81;7355502;19;19922;-64
2023/04/19 04:33:14;;;;;;;;;;;;;;;10.61;89.46;102041.09;7359880;19;19919;-63
2023/04/19 04:35:42;;;;;;;;;;;;;;;10.54;89.23;102037.28;7357979;19;20323;-63
2023/04/19 04:38:09;;;;;;;;;;;;;;;10.51;89.61;102032.28;7366006;19;19922;-63
2023/04/19 04:43:22;;;;;;;;;;;;;;;10.42;89.88;102034.78;7357490;19;19914;-62
2023/04/19 04:45:49;;;;;;;;;;;;;;;10.33;90.22;102035.50;7354308;19;19930;-63
2023/04/19 04:48:16;;;;;;;;;;;;;;;10.21;90.87;102038.16;7358373;19;19942;-63
2023/04/19 04:50:43;;;;;;;;;;;;;;;10.26;90.68;102043.03;7353006;19;19926;-63
2023/04/19 04:53:11;;;;;;;;;;;;;;;10.31;90.82;102043.50;7359617;19;19927;-64
2023/04/19 04:55:38;;;;;;;;;;;;;;;10.33;90.64;102044.25;7355686;19;19918;-64
2023/04/19 04:58:05;;;;;;;;;;;;;;;10.23;90.42;102046.75;7366040;19;19915;-63
2023/04/19 05:00:33;;;;;;;;;;;;;;;10.26;90.32;102050.94;7361945;19;20171;-63
2023/04/19 05:03:01;;;;;;;;;;;;;;;10.25;90.43;102050.13;7364900;19;19919;-64
2023/04/19 05:05:29;;;;;;;;;;;;;;;10.25;90.63;102057.19;7363281;19;19911;-63
2023/04/19 05:07:56;;;;;;;;;;;;;;;10.22;90.37;102057.41;7362873;19;19918;-63
2023/04/19 05:10:23;;;;;;;;;;;;;;;10.16;90.26;102049.97;7365572;19;19930;-67
2023/04/19 05:12:50;;;;;;;;;;;;;;;10.12;90.58;102049.34;7361681;19;19929;-65
2023/04/19 05:15:17;;;;;;;;;;;;;;;10.16;90.43;102053.44;7362205;19;19919;-63
2023/04/19 05:17:44;;;;;;;;;;;;;;;10.15;90.14;102051.78;7365001;19;19919;-63
2023/04/19 05:20:11;;;;;;;;;;;;;;;10.16;90.27;102049.97;7363840;19;19959;-63
2023/04/19 05:22:38;;;;;;;;;;;;;;;10.19;90.76;102049.75;7363987;19;20830;-64
2023/04/19 05:25:05;;;;;;;;;;;;;;;10.22;90.16;102047.72;7362920;19;20415;-64
2023/04/19 05:27:32;;;;;;;;;;;;;;;10.24;89.95;102052.88;7363023;19;19926;-61
2023/04/19 05:29:59;;;;;;;;;;;;;;;10.19;89.69;102055.03;7362366;19;20788;-62
2023/04/19 05:32:28;;;;;;;;;;;;;;;10.21;90.01;102053.94;7366664;19;19946;-64
2023/04/19 05:34:55;;;;;;;;;;;;;;;10.22;90.35;102044.25;7362038;19;20525;-63
2023/04/19 05:37:23;;;;;;;;;;;;;;;10.29;89.59;102066.50;7361992;19;19934;-63
2023/04/19 05:39:50;;;;;;;;;;;;;;;10.27;89.53;102063.97;7360156;19;19915;-63
2023/04/19 05:42:17;;;;;;;;;;;;;;;10.27;89.30;102061.34;7365451;19;19919;-61
2023/04/19 05:44:44;;;;;;;;;;;;;;;10.33;89.31;102070.56;7358357;19;19926;-62
2023/04/19 05:47:11;;;;;;;;;;;;;;;10.36;89.53;102064.22;7362543;19;19907;-63
2023/04/19 05:49:38;;;;;;;;;;;;;;;10.39;89.03;102064.81;7364758;19;20332;-61
2023/04/19 05:52:07;;;;;;;;;;;;;;;10.40;88.62;102063.88;7362902;19;19919;-64
2023/04/19 05:54:34;;;;;;;;;;;;;;;10.42;88.50;102075.09;7365504;19;19922;-64
2023/04/19 05:57:02;;;;;;;;;;;;;;;10.46;89.04;102075.69;7360701;19;19919;-63
2023/04/19 05:59:29;;;;;;;;;;;;;;;10.50;88.43;102075.34;7359511;19;20530;-62
2023/04/19 06:01:56;;;;;;;;;;;;;;;10.54;88.26;102079.38;7361511;19;19925;-64
2023/04/19 06:04:23;;;;;;;;;;;;;;;10.56;87.89;102069.59;7362361;19;19994;-63
2023/04/19 06:06:51;;;;;;;;;;;;;;;10.60;87.79;102075.44;7359830;19;20115;-63
2023/04/19 06:09:18;;;;;;;;;;;;;;;10.66;88.11;102082.84;7359842;19;19922;-64
2023/04/19 06:11:45;;;;;;;;;;;;;;;10.66;87.50;102078.44;7360634;19;19978;-63
2023/04/19 06:14:17;;;;;;;;;;;;;;;10.70;87.47;102076.38;7358147;19;20313;-65
2023/04/19 06:16:45;;;;;;;;;;;;;;;10.76;87.57;102075.91;7360551;19;20567;-63
2023/04/19 06:19:12;;;;;;;;;;;;;;;10.82;87.46;102075.38;7361701;19;20363;-62
2023/04/19 06:21:39;;;;;;;;;;;;;;;10.79;87.09;102078.25;7366775;19;19930;-63
2023/04/19 06:24:06;;;;;;;;;;;;;;;10.68;87.61;102078.28;7361843;19;20269;-63
2023/04/19 06:26:33;;;;;;;;;;;;;;;10.72;87.72;102075.28;7362947;19;19915;-63
2023/04/19 06:29:00;;;;;;;;;;;;;;;10.80;87.51;102071.22;7357508;19;20141;-63
2023/04/19 06:31:27;;;;;;;;;;;;;;;10.85;87.70;102077.78;7362043;19;19990;-64
2023/04/19 06:33:55;;;;;;;;;;;;;;;10.85;87.12;102075.16;7362586;19;19915;-64
2023/04/19 06:36:22;;;;;;;;;;;;;;;10.85;87.22;102077.78;7359502;19;19975;-65
2023/04/19 06:38:49;;;;;;;;;;;;;;;10.97;87.32;102071.50;7357246;19;19919;-63
2023/04/19 06:41:16;;;;;;;;;;;;;;;11.18;86.33;102075.97;7362101;19;19919;-64
2023/04/19 06:43:44;;;;;;;;;;;;;;;11.47;84.88;102082.34;7361812;19;19923;-63
2023/04/19 06:46:13;;;;;;;;;;;;;;;11.72;83.23;102086.41;7359142;19;20834;-62
2023/04/19 06:48:40;;;;;;;;;;;;;;;11.92;82.48;102086.41;7358584;19;19925;-63
2023/04/19 06:51:08;;;;;;;;;;;;;;;12.18;81.56;102083.34;7357374;19;19927;-63
2023/04/19 06:53:35;;;;;;;;;;;;;;;12.55;80.56;102089.72;7364047;19;19934;-64
2023/04/19 06:56:03;;;;;;;;;;;;;;;12.84;78.82;102082.75;7356840;19;20263;-63
2023/04/19 06:58:31;;;;;;;;;;;;;;;13.24;76.20;102080.03;7360678;19;19921;-61
2023/04/19 07:01:02;;;;;;;;;;;;;;;13.37;75.81;102084.19;7356626;19;19927;-63
2023/04/19 07:03:29;;;;;;;;;;;;;;;13.45;75.79;102079.03;7361868;19;19925;-64
2023/04/19 07:05:57;;;;;;;;;;;;;;;13.88;74.29;102082.00;7360260;19;19915;-62
2023/04/19 07:08:24;;;;;;;;;;;;;;;14.08;73.94;102086.28;7362391;19;19919;-62
2023/04/19 07:11:00;;;;;;;;;;;;;;;14.23;72.42;102088.44;7360034;19;20424;-61
2023/04/19 07:13:27;;;;;;;;;;;;;;;14.45;71.23;102099.53;7362445;19;20016;-64
2023/04/19 07:15:54;;;;;;;;;;;;;;;14.38;70.99;102103.75;7358626;19;20582;-63
2023/04/19 07:18:22;;;;;;;;;;;;;;;14.36;71.44;102104.84;7363577;19;20824;-63
2023/04/19 07:20:49;;;;;;;;;;;;;;;14.14;71.82;102111.34;7360733;19;19922;-67
2023/04/19 07:23:16;;;;;;;;;;;;;;;13.79;73.61;102103.22;7358918;19;20023;-63
2023/04/19 07:25:43;;;;;;;;;;;;;;;13.44;74.97;102102.00;7357676;19;19918;-63
2023/04/19 07:28:10;;;;;;;;;;;;;;;13.40;75.26;102099.78;7360071;19;19918;-66
2023/04/19 07:30:37;;;;;;;;;;;;;;;13.48;76.56;102105.19;7355441;19;20363;-63
2023/04/19 07:33:07;;;;;;;;;;;;;;;13.55;76.34;102101.84;7359477;19;19929;-62
2023/04/19 07:35:34;;;;;;;;;;;;;;;13.68;74.65;102106.84;7356475;19;19980;-62
2023/04/19 07:38:01;;;;;;;;;;;;;;;13.62;75.24;102104.75;7363457;19;19922;-63
2023/04/19 07:40:28;;;;;;;;;;;;;;;13.61;76.92;102109.22;7355954;19;19925;-63
2023/04/19 07:42:55;;;;;;;;;;;;;;;13.84;75.37;102112.38;7359087;19;19922;-64
2023/04/19 07:45:22;;;;;;;;;;;;;;;14.01;74.47;102109.03;7358341;19;20618;-63
2023/04/19 07:47:50;;;;;;;;;;;;;;;14.16;73.37;102114.69;7359393;19;19907;-62
2023/04/19 07:50:17;;;;;;;;;;;;;;;14.29;74.12;102115.19;7359641;19;19926;-63
2023/04/19 07:52:44;;;;;;;;;;;;;;;14.45;72.14;102114.59;7361627;19;19925;-62
2023/04/19 07:55:11;;;;;;;;;;;;;;;14.66;71.51;102120.50;7358715;19;19922;-63
2023/04/19 07:57:46;;;;;;;;;;;;;;;14.66;70.60;102109.06;7360038;19;21347;-63
2023/04/19 08:00:14;;;;;;;;;;;;;;;14.73;70.92;102112.81;7355052;19;19946;-62
2023/04/19 08:02:42;;;;;;;;;;;;;;;14.36;71.79;102107.50;7359064;19;20272;-61
2023/04/19 08:05:10;;;;;;;;;;;;;;;14.54;71.34;102109.25;7358253;19;19929;-63
2023/04/19 08:07:37;;;;;;;;;;;;;;;14.57;72.53;102116.09;7360804;19;19935;-63
2023/04/19 08:10:05;;;;;;;;;;;;;;;14.60;72.34;102117.59;7357417;19;19923;-62
2023/04/19 08:12:33;;;;;;;;;;;;;;;14.59;72.09;102122.06;7357594;19;20475;-62
2023/04/19 08:15:08;;;;;;;;;;;;;;;14.30;72.31;102122.16;7357145;19;20243;-62
2023/04/19 08:17:55;;;;;;;;;;;;;;;13.89;74.18;102120.72;7358393;19;19923;-63
2023/04/19 08:20:22;;;;;;;;;;;;;;;13.82;74.83;102118.78;7357612;19;19919;-64
2023/04/19 08:22:49;;;;;;;;;;;;;;;13.70;75.39;102126.06;7360023;19;19915;-62
2023/04/19 08:25:17;;;;;;;;;;;;;;;13.59;75.33;102112.97;7359209;19;20329;-64
2023/04/19 08:27:43;;;;;;;;;;;;;;;13.58;75.90;102121.88;7354964;19;19922;-63
2023/04/19 08:30:11;;;;;;;;;;;;;;;13.59;76.79;102118.28;7355345;19;19958;-62
2023/04/19 08:32:38;;;;;;;;;;;;;;;13.56;77.32;102126.50;7357321;19;19923;-64
2023/04/19 08:35:07;;;;;;;;;;;;;;;13.55;77.40;102127.47;7359742;19;19922;-63
2023/04/19 08:37:34;;;;;;;;;;;;;;;13.49;76.38;102133.31;7359495;19;19919;-61
2023/04/19 08:40:01;;;;;;;;;;;;;;;13.48;77.07;102129.00;7357426;19;19922;-64
2023/04/19 08:42:30;;;;;;;;;;;;;;;13.50;77.46;102129.69;7354993;19;19925;-64
2023/04/19 08:45:05;;;;;;;;;;;;;;;13.52;78.07;102135.66;7353514;19;20159;-63
2023/04/19 08:47:35;;;;;;;;;;;;;;;13.50;77.76;102133.19;7357056;19;21525;-65
2023/04/19 08:50:19;;;;;;;;;;;;;;;13.49;77.87;102135.94;7354194;19;19919;-61
2023/04/19 08:53:02;;;;;;;;;;;;;;;13.54;77.91;102131.91;7359319;19;19929;-63
2023/04/19 08:55:32;;;;;;;;;;;;;;;13.60;78.00;102135.81;7352314;19;19918;-63
2023/04/19 08:58:02;;;;;;;;;;;;;;;13.67;78.38;102132.47;7357944;19;19955;-62
2023/04/19 09:00:32;;;;;;;;;;;;;;;13.73;76.99;102138.16;7355608;19;19923;-62
2023/04/19 09:02:59;;;;;;;;;;;;;;;13.74;76.34;102138.03;7360041;19;20576;-63
2023/04/19 09:05:27;;;;;;;;;;;;;;;13.76;76.52;102140.53;7355474;19;19990;-63
2023/04/19 09:07:54;;;;;;;;;;;;;;;13.71;76.39;102144.41;7359201;19;19929;-62
2023/04/19 09:10:23;;;;;;;;;;;;;;;13.77;76.05;102144.84;7358119;19;20420;-63
2023/04/19 09:12:53;;;;;;;;;;;;;;;13.73;75.70;102144.28;7356911;19;19966;-62
2023/04/19 09:15:33;;;;;;;;;;;;;;;13.74;76.69;102145.97;7355677;19;19919;-62
2023/04/19 09:18:04;;;;;;;;;;;;;;;13.72;76.38;102142.59;7358441;19;19919;-64
2023/04/19 09:20:35;;;;;;;;;;;;;;;13.71;76.22;102136.47;7359927;19;19919;-63
2023/04/19 09:23:04;;;;;;;;;;;;;;;13.65;76.23;102131.78;7359532;19;19915;-63
2023/04/19 09:25:31;;;;;;;;;;;;;;;13.69;76.71;102130.50;7357446;19;19938;-62
2023/04/19 09:28:18;;;;;;;;;;;;;;;13.73;76.65;102132.88;7360946;19;19919;-62
2023/04/19 09:30:46;;;;;;;;;;;;;;;13.76;77.03;102135.25;7349872;19;20297;-62
2023/04/19 09:33:34;;;;;;;;;;;;;;;13.81;77.17;102138.31;7356659;19;21454;-60
2023/04/19 09:36:02;;;;;;;;;;;;;;;13.81;76.05;102133.84;7353844;19;19914;-64
2023/04/19 09:38:29;;;;;;;;;;;;;;;13.88;75.60;102134.94;7355237;19;21767;-65
2023/04/19 09:40:59;;;;;;;;;;;;;;;13.90;75.14;102129.50;7356116;19;19918;-64
2023/04/19 09:43:26;;;;;;;;;;;;;;;13.92;75.88;102133.66;7357559;19;20205;-62
2023/04/19 09:46:16;;;;;;;;;;;;;;;13.89;76.09;102131.31;7362139;19;20016;-61
2023/04/19 09:48:43;;;;;;;;;;;;;;;13.93;76.55;102137.16;7363198;19;19915;-62
2023/04/19 09:51:10;;;;;;;;;;;;;;;13.96;75.22;102136.88;7360501;19;19915;-64
2023/04/19 09:53:42;;;;;;;;;;;;;;;13.96;74.37;102127.13;7366290;19;19919;-65
2023/04/19 09:56:11;;;;;;;;;;;;;;;14.01;74.94;102126.72;7362518;19;19919;-66
2023/04/19 09:58:38;;;;;;;;;;;;;;;14.07;74.65;102132.25;7361867;19;19927;-63
2023/04/19 10:01:18;;;;;;;;;;;;;;;14.13;74.50;102129.03;7363997;19;19934;-63
2023/04/19 10:03:47;;;;;;;;;;;;;;;14.15;74.49;102120.94;7365013;19;19911;-64
2023/04/19 10:06:16;;;;;;;;;;;;;;;14.15;73.91;102120.94;7358807;19;19926;-64
2023/04/19 10:08:48;;;;;;;;;;;;;;;14.17;74.44;102121.63;7360974;19;19915;-63
2023/04/19 10:11:16;;;;;;;;;;;;;;;14.22;74.34;102121.22;7361831;19;19919;-64
2023/04/19 10:13:44;;;;;;;;;;;;;;;14.23;75.22;102110.47;7363377;19;20016;-64
2023/04/19 10:16:11;;;;;;;;;;;;;;;14.23;74.85;102114.91;7355217;19;20272;-63
2023/04/19 10:18:45;;;;;;;;;;;;;;;14.28;74.64;102110.88;7359715;19;19982;-63
2023/04/19 10:21:13;;;;;;;;;;;;;;;14.29;73.07;102101.94;7343461;19;19922;-63
2023/04/19 10:23:40;;;;;;;;;;;;;;;14.36;72.69;102097.78;7352731;19;20244;-63
2023/04/19 10:26:07;;;;;;;;;;;;;;;14.43;72.48;102104.16;7351213;19;20414;-63
2023/04/19 10:28:35;;;;;;;;;;;;;;;14.47;72.75;102097.59;7353965;19;19923;-63
2023/04/19 10:31:03;;;;;;;;;;;;;;;14.50;72.65;102092.00;7356221;19;19986;-63
2023/04/19 10:33:34;;;;;;;;;;;;;;;14.55;72.38;102097.69;7357060;19;19919;-64
2023/04/19 10:36:02;;;;;;;;;;;;;;;14.61;71.88;102100.72;7353301;19;20364;-63
2023/04/19 10:38:32;;;;;;;;;;;;;;;14.64;71.82;102092.47;7357241;19;20773;-63
2023/04/19 10:41:00;;;;;;;;;;;;;;;14.69;71.79;102090.22;7355985;19;19929;-62
2023/04/19 10:43:28;;;;;;;;;;;;;;;14.72;71.13;102093.41;7357390;19;19955;-63
2023/04/19 10:45:59;;;;;;;;;;;;;;;14.79;71.66;102080.38;7351767;19;20502;-62
2023/04/19 10:50:57;;;;;;;;;;;;;;;14.98;71.40;102086.38;7353754;19;19923;-63
2023/04/19 10:53:27;;;;;;;;;;;;;;;15.10;70.45;102081.72;7354808;19;19915;-64
2023/04/19 10:55:54;;;;;;;;;;;;;;;15.18;70.03;102086.28;7349654;19;19958;-64
2023/04/19 10:58:21;;;;;;;;;;;;;;;15.26;69.88;102084.53;7345037;19;19926;-65
2023/04/19 11:00:48;;;;;;;;;;;;;;;15.38;69.17;102077.16;7353369;19;20544;-64
2023/04/19 11:03:18;;;;;;;;;;;;;;;15.39;68.79;102071.69;7355095;19;19923;-63
2023/04/19 11:06:06;;;;;;;;;;;;;;;15.44;69.30;102081.03;7352657;19;19919;-63
2023/04/19 11:08:33;;;;;;;;;;;;;;;15.34;68.81;102075.78;7354218;19;20683;-64
2023/04/19 11:11:00;;;;;;;;;;;;;;;15.31;68.05;102078.75;7356000;19;19919;-63
2023/04/19 11:13:27;;;;;;;;;;;;;;;15.32;68.84;102067.16;7353201;19;19911;-64
2023/04/19 11:15:57;;;;;;;;;;;;;;;15.33;69.27;102071.50;7346620;19;19966;-65
2023/04/19 11:18:28;;;;;;;;;;;;;;;15.36;68.44;102074.66;7353059;19;19941;-62
2023/04/19 11:20:56;;;;;;;;;;;;;;;15.43;68.17;102071.41;7353491;19;19914;-64
2023/04/19 11:23:23;;;;;;;;;;;;;;;15.16;68.30;102067.84;7349282;19;19930;-64
2023/04/19 11:25:51;;;;;;;;;;;;;;;15.22;69.25;102066.41;7350290;19;21220;-61
2023/04/19 11:28:20;;;;;;;;;;;;;;;15.27;68.25;102053.53;7353814;19;19941;-62
2023/04/19 11:30:48;;;;;;;;;;;;;;;15.36;67.86;102064.06;7348962;19;19919;-63
2023/04/19 11:33:18;;;;;;;;;;;;;;;15.44;66.03;102060.63;7354727;19;19922;-63
2023/04/19 11:35:45;;;;;;;;;;;;;;;15.41;65.97;102051.16;7347701;19;19937;-64
2023/04/19 11:38:12;;;;;;;;;;;;;;;15.34;65.92;102066.00;7352037;19;19921;-60
2023/04/19 11:40:39;;;;;;;;;;;;;;;15.39;66.42;102047.81;7354691;19;19915;-63
2023/04/19 11:43:06;;;;;;;;;;;;;;;15.46;65.75;102041.91;7357014;19;19921;-64
2023/04/19 11:45:35;;;;;;;;;;;;;;;15.50;65.70;102041.44;7349102;19;19911;-62
2023/04/19 11:48:06;;;;;;;;;;;;;;;15.57;65.26;102039.88;7352701;19;19927;-62
2023/04/19 11:50:34;;;;;;;;;;;;;;;15.63;65.16;102044.56;7355093;19;19939;-64
2023/04/19 11:53:04;;;;;;;;;;;;;;;15.69;64.60;102032.50;7355910;19;19954;-63
2023/04/19 11:55:32;;;;;;;;;;;;;;;15.88;64.16;102023.47;7348944;19;19923;-61
2023/04/19 11:57:59;;;;;;;;;;;;;;;16.07;62.87;102032.03;7350543;19;20229;-64
2023/04/19 12:00:27;;;;;;;;;;;;;;;16.23;61.06;102026.78;7349953;19;19978;-61
2023/04/19 12:02:54;;;;;;;;;;;;;;;16.32;59.96;102018.84;7352953;19;20288;-62
2023/04/19 12:05:23;;;;;;;;;;;;;;;16.35;58.47;102008.75;7349783;19;19924;-62
2023/04/19 12:07:53;;;;;;;;;;;;;;;16.31;57.57;102030.47;7347090;19;19918;-62
2023/04/19 12:10:21;;;;;;;;;;;;;;;16.24;57.66;102039.09;7352464;19;19917;-63
2023/04/19 12:12:48;;;;;;;;;;;;;;;16.30;58.16;102031.47;7352817;19;20344;-63
2023/04/19 12:15:15;;;;;;;;;;;;;;;16.35;58.27;102023.84;7347754;19;19926;-63
2023/04/19 12:17:45;;;;;;;;;;;;;;;16.38;58.51;102029.66;7349588;19;20319;-65
2023/04/19 12:20:26;;;;;;;;;;;;;;;16.37;58.60;102016.53;7352933;19;20294;-63
2023/04/19 12:22:53;;;;;;;;;;;;;;;16.44;58.77;102025.53;7350616;19;19929;-63
2023/04/19 12:25:20;;;;;;;;;;;;;;;16.40;57.15;102016.22;7345729;19;19921;-63
2023/04/19 12:27:47;;;;;;;;;;;;;;;16.48;57.40;102019.75;7351532;19;19966;-64
2023/04/19 12:30:15;;;;;;;;;;;;;;;16.57;56.41;102002.81;7348702;19;19907;-63
2023/04/19 12:32:42;;;;;;;;;;;;;;;16.69;56.93;102000.72;7351783;19;19914;-62
2023/04/19 12:35:09;;;;;;;;;;;;;;;16.78;56.49;102014.84;7351263;19;19922;-63
2023/04/19 12:37:36;;;;;;;;;;;;;;;16.80;56.54;102007.56;7341900;19;20604;-63
2023/04/19 12:40:04;;;;;;;;;;;;;;;16.74;56.72;102010.84;7350593;19;19919;-64
2023/04/19 12:42:31;;;;;;;;;;;;;;;16.72;57.33;101997.72;7354191;19;20190;-64
2023/04/19 12:44:58;;;;;;;;;;;;;;;16.82;57.57;102000.22;7346668;19;20364;-63